Time;durP1;ratioP1;P1;durP2;ratioP2;P2;SDS_P1;SDS_P2;PMS_P1;PMS_P2;Temp;Humidity;BMP_temperature;BMP_pressure;BME280_temperature;BME280_humidity;BME280_pressure;Samples;Min_cycle;Max_cycle;Signal;HPM_P1;HPM_P2
2022/03/15 00:02:06;;;;;;;0.20;0.20;;;;;;;;;;4981523;28;20128;-86
2022/03/15 00:04:33;;;;;;;0.20;0.20;;;;;;;;;;4979519;28;20053;-85
2022/03/15 00:06:59;;;;;;;0.20;0.20;;;;;;;;;;4970644;28;20050;-86
2022/03/15 00:09:25;;;;;;;25.13;23.63;;;;;;;;;;4979814;28;20046;-87
2022/03/15 00:11:54;;;;;;;0.20;0.20;;;;;;;;;;4979404;28;20038;-87
2022/03/15 00:14:21;;;;;;;0.10;0.10;;;;;;;;;;4981545;28;20026;-87
2022/03/15 00:16:47;;;;;;;0.00;0.00;;;;;;;;;;4981105;28;20221;-87
2022/03/15 00:19:13;;;;;;;0.00;0.00;;;;;;;;;;4980997;28;20034;-87
2022/03/15 00:21:39;;;;;;;0.20;0.20;;;;;;;;;;4978161;28;20601;-87
2022/03/15 00:24:06;;;;;;;0.30;0.30;;;;;;;;;;4974941;28;20449;-86
2022/03/15 00:26:33;;;;;;;0.10;0.10;;;;;;;;;;4983263;28;20517;-91
2022/03/15 00:28:59;;;;;;;0.20;0.20;;;;;;;;;;4988628;28;20038;-90
2022/03/15 00:31:25;;;;;;;0.10;0.10;;;;;;;;;;4987387;28;20110;-91
2022/03/15 00:33:51;;;;;;;0.20;0.20;;;;;;;;;;4982874;28;20034;-85
2022/03/15 00:36:17;;;;;;;0.20;0.20;;;;;;;;;;4980892;28;20056;-86
2022/03/15 00:38:43;;;;;;;0.30;0.30;;;;;;;;;;4977083;28;20054;-86
2022/03/15 00:41:09;;;;;;;0.25;0.25;;;;;;;;;;4981933;28;20129;-85
2022/03/15 00:43:36;;;;;;;0.20;0.20;;;;;;;;;;4982099;28;20061;-85
2022/03/15 00:46:02;;;;;;;0.30;0.30;;;;;;;;;;4981041;28;20130;-88
2022/03/15 00:48:28;;;;;;;0.20;0.20;;;;;;;;;;4980538;28;20036;-88
2022/03/15 00:50:54;;;;;;;0.20;0.20;;;;;;;;;;4976284;28;20781;-87
2022/03/15 00:53:20;;;;;;;0.30;0.30;;;;;;;;;;4978303;28;20368;-88
2022/03/15 00:55:47;;;;;;;0.30;0.30;;;;;;;;;;4977528;28;20134;-88
2022/03/15 00:58:13;;;;;;;0.20;0.20;;;;;;;;;;4978776;28;20060;-87
2022/03/15 01:00:39;;;;;;;0.40;0.40;;;;;;;;;;4981166;28;20033;-88
2022/03/15 01:03:06;;;;;;;0.40;0.40;;;;;;;;;;4981037;28;20473;-88
2022/03/15 01:05:32;;;;;;;0.70;0.70;;;;;;;;;;4978467;28;20688;-87
2022/03/15 01:07:58;;;;;;;0.60;0.60;;;;;;;;;;4981142;28;20050;-85
2022/03/15 01:10:24;;;;;;;0.73;0.73;;;;;;;;;;4979655;28;20093;-87
2022/03/15 01:12:50;;;;;;;1.42;1.42;;;;;;;;;;4980495;28;20373;-89
2022/03/15 01:15:17;;;;;;;0.60;0.60;;;;;;;;;;4979604;28;20038;-89
2022/03/15 01:17:43;;;;;;;0.90;0.90;;;;;;;;;;4976261;28;20042;-87
2022/03/15 01:20:09;;;;;;;0.50;0.50;;;;;;;;;;4977692;28;20132;-86
2022/03/15 01:22:35;;;;;;;0.93;0.93;;;;;;;;;;4980060;28;20119;-86
2022/03/15 01:25:01;;;;;;;0.60;0.60;;;;;;;;;;4979111;28;20181;-85
2022/03/15 01:27:27;;;;;;;0.63;0.63;;;;;;;;;;4980401;28;20060;-86
2022/03/15 01:29:53;;;;;;;0.90;0.90;;;;;;;;;;4979445;28;20029;-88
2022/03/15 01:32:20;;;;;;;1.43;1.43;;;;;;;;;;4980604;28;20054;-86
2022/03/15 01:34:46;;;;;;;0.80;0.80;;;;;;;;;;4978839;28;20510;-86
2022/03/15 01:37:12;;;;;;;0.97;0.97;;;;;;;;;;4979532;28;20827;-86
2022/03/15 01:39:38;;;;;;;0.93;0.93;;;;;;;;;;4975986;28;20023;-86
2022/03/15 01:42:04;;;;;;;0.90;0.90;;;;;;;;;;4979018;28;20069;-85
2022/03/15 01:44:33;;;;;;;1999.90;999.90;;;;;;;;;;4980336;28;20038;-86
2022/03/15 01:46:59;;;;;;;8.35;7.95;;;;;;;;;;4978904;28;20038;-86
2022/03/15 01:49:26;;;;;;;6.03;5.72;;;;;;;;;;4977777;28;20557;-86
2022/03/15 01:51:52;;;;;;;0.10;0.10;;;;;;;;;;4979202;28;20561;-85
2022/03/15 01:54:20;;;;;;;0.10;0.10;;;;;;;;;;4978783;28;20057;-85
2022/03/15 01:56:46;;;;;;;0.10;0.10;;;;;;;;;;4976798;28;20039;-85
2022/03/15 01:59:14;;;;;;;1.00;1.00;;;;;;;;;;4977522;28;20030;-85
2022/03/15 02:01:41;;;;;;;0.20;0.20;;;;;;;;;;4982518;28;20157;-85
2022/03/15 02:04:07;;;;;;;;;;;;;;;;;;4980770;28;20026;-85
2022/03/15 02:06:36;;;;;;;0.10;0.10;;;;;;;;;;4981534;28;20428;-86
2022/03/15 02:09:15;;;;;;;0.20;0.20;;;;;;;;;;4981564;28;20120;-84
2022/03/15 02:11:42;;;;;;;0.10;0.10;;;;;;;;;;4980733;28;20046;-85
2022/03/15 02:14:09;;;;;;;0.10;0.10;;;;;;;;;;4982364;28;20026;-86
2022/03/15 02:16:35;;;;;;;0.20;0.20;;;;;;;;;;4986769;28;20089;-88
2022/03/15 02:19:02;;;;;;;0.20;0.20;;;;;;;;;;4986200;28;20309;-88
2022/03/15 02:21:29;;;;;;;0.20;0.20;;;;;;;;;;4984347;28;20038;-89
2022/03/15 02:23:55;;;;;;;;;;;;;;;;;;4985493;28;20036;-88
2022/03/15 02:26:21;;;;;;;0.10;0.10;;;;;;;;;;4980441;28;19926;-89
2022/03/15 02:28:47;;;;;;;0.30;0.30;;;;;;;;;;4987736;28;20030;-89
2022/03/15 02:31:13;;;;;;;0.20;0.20;;;;;;;;;;4987423;28;20022;-89
2022/03/15 02:33:39;;;;;;;0.20;0.20;;;;;;;;;;4981000;28;20062;-85
2022/03/15 02:36:05;;;;;;;0.20;0.20;;;;;;;;;;4980672;28;20474;-87
2022/03/15 02:38:31;;;;;;;0.40;0.40;;;;;;;;;;4983626;28;20038;-90
2022/03/15 02:40:58;;;;;;;0.20;0.20;;;;;;;;;;4982809;28;20026;-87
2022/03/15 02:43:24;;;;;;;0.28;0.28;;;;;;;;;;4986472;28;20497;-87
2022/03/15 02:45:50;;;;;;;0.20;0.20;;;;;;;;;;4985197;28;20573;-85
2022/03/15 02:48:47;;;;;;;0.47;0.47;;;;;;;;;;4982626;28;20514;-84
2022/03/15 02:51:15;;;;;;;0.20;0.20;;;;;;;;;;4980532;28;20037;-85
2022/03/15 02:53:42;;;;;;;0.20;0.20;;;;;;;;;;4980491;28;20034;-85
2022/03/15 02:56:12;;;;;;;0.20;0.20;;;;;;;;;;4981184;28;20026;-84
2022/03/15 02:58:38;;;;;;;0.32;0.32;;;;;;;;;;4980904;28;20070;-86
2022/03/15 03:01:04;;;;;;;;;;;;;;;;;;4981250;28;20076;-87
2022/03/15 03:03:30;;;;;;;0.20;0.20;;;;;;;;;;4980652;28;20377;-83
2022/03/15 03:05:57;;;;;;;0.45;0.45;;;;;;;;;;4979322;28;20035;-80
2022/03/15 03:08:25;;;;;;;0.30;0.30;;;;;;;;;;4981996;28;20046;-78
2022/03/15 03:10:55;;;;;;;0.30;0.30;;;;;;;;;;4979617;28;20053;-79
2022/03/15 03:13:30;;;;;;;0.40;0.40;;;;;;;;;;4980250;28;20035;-80
2022/03/15 03:15:58;;;;;;;0.20;0.20;;;;;;;;;;4979656;28;20030;-79
2022/03/15 03:18:28;;;;;;;0.10;0.10;;;;;;;;;;4981840;28;20073;-79
2022/03/15 03:20:55;;;;;;;0.10;0.10;;;;;;;;;;4981443;28;20026;-79
2022/03/15 03:23:22;;;;;;;0.10;0.10;;;;;;;;;;4984101;28;20030;-79
2022/03/15 03:25:48;;;;;;;0.30;0.30;;;;;;;;;;4982948;28;20033;-80
2022/03/15 03:28:14;;;;;;;0.20;0.20;;;;;;;;;;4981391;28;20042;-79
2022/03/15 03:30:47;;;;;;;1.42;1.42;;;;;;;;;;4983926;28;20121;-79
2022/03/15 03:33:19;;;;;;;1.00;1.00;;;;;;;;;;4981537;28;20030;-79
2022/03/15 03:35:45;;;;;;;1.58;1.58;;;;;;;;;;4975529;28;20022;-80
2022/03/15 03:38:11;;;;;;;0.93;0.93;;;;;;;;;;4983331;28;20038;-80
2022/03/15 03:40:38;;;;;;;0.80;0.80;;;;;;;;;;4979269;28;20049;-79
2022/03/15 03:43:04;;;;;;;0.70;0.70;;;;;;;;;;4978564;28;20034;-79
2022/03/15 03:45:30;;;;;;;1.77;1.77;;;;;;;;;;4979210;28;20317;-78
2022/03/15 03:47:56;;;;;;;0.70;0.70;;;;;;;;;;4979185;28;20725;-79
2022/03/15 03:50:23;;;;;;;0.70;0.70;;;;;;;;;;4979370;28;20052;-80
2022/03/15 03:52:49;;;;;;;0.60;0.60;;;;;;;;;;4980208;28;20040;-78
2022/03/15 03:55:15;;;;;;;1.13;1.13;;;;;;;;;;4976858;28;20028;-78
2022/03/15 03:57:41;;;;;;;0.40;0.40;;;;;;;;;;4979179;28;20114;-80
2022/03/15 04:00:08;;;;;;;0.40;0.40;;;;;;;;;;4977911;28;20038;-81
2022/03/15 04:02:34;;;;;;;;;;;;;;;;;;4980796;28;20030;-81
2022/03/15 04:05:00;;;;;;;0.30;0.30;;;;;;;;;;4979727;28;19944;-79
2022/03/15 04:07:29;;;;;;;0.60;0.60;;;;;;;;;;4979539;28;20038;-80
2022/03/15 04:09:55;;;;;;;0.40;0.40;;;;;;;;;;4978888;28;20050;-79
2022/03/15 04:12:23;;;;;;;0.50;0.50;;;;;;;;;;4980270;28;20030;-78
2022/03/15 04:14:49;;;;;;;0.50;0.50;;;;;;;;;;4982231;28;20027;-79
2022/03/15 04:17:15;;;;;;;0.40;0.40;;;;;;;;;;4979775;28;20026;-80
2022/03/15 04:19:41;;;;;;;0.40;0.40;;;;;;;;;;4982191;28;20608;-81
2022/03/15 04:22:08;;;;;;;0.40;0.40;;;;;;;;;;4976195;28;20031;-81
2022/03/15 04:24:34;;;;;;;1.17;1.17;;;;;;;;;;4974432;28;20041;-82
2022/03/15 04:27:00;;;;;;;0.60;0.60;;;;;;;;;;4978594;28;20112;-81
2022/03/15 04:29:27;;;;;;;0.40;0.40;;;;;;;;;;4980113;28;20281;-80
2022/03/15 04:31:53;;;;;;;0.52;0.52;;;;;;;;;;4981307;28;20027;-80
2022/03/15 04:34:19;;;;;;;0.88;0.88;;;;;;;;;;4978778;28;20034;-78
2022/03/15 04:36:45;;;;;;;0.40;0.40;;;;;;;;;;4980153;28;20030;-78
2022/03/15 04:39:14;;;;;;;0.30;0.30;;;;;;;;;;4980928;28;20270;-78
2022/03/15 04:41:40;;;;;;;0.30;0.30;;;;;;;;;;4978143;28;20035;-78
2022/03/15 04:44:07;;;;;;;1.17;1.17;;;;;;;;;;4973530;28;20033;-78
2022/03/15 04:46:33;;;;;;;0.30;0.30;;;;;;;;;;4980157;28;20076;-79
2022/03/15 04:49:00;;;;;;;0.30;0.30;;;;;;;;;;4980786;28;20044;-79
2022/03/15 04:51:26;;;;;;;0.30;0.30;;;;;;;;;;4978778;28;20026;-78
2022/03/15 04:53:54;;;;;;;0.60;0.60;;;;;;;;;;4976138;28;20108;-79
2022/03/15 04:56:21;;;;;;;0.30;0.30;;;;;;;;;;4980396;28;20044;-82
2022/03/15 04:58:47;;;;;;;0.40;0.40;;;;;;;;;;4979592;28;20113;-80
2022/03/15 05:01:13;;;;;;;0.30;0.30;;;;;;;;;;4981018;28;20030;-80
2022/03/15 05:03:40;;;;;;;0.65;0.65;;;;;;;;;;4980177;28;20026;-80
2022/03/15 05:06:06;;;;;;;0.28;0.28;;;;;;;;;;4978728;28;20073;-80
2022/03/15 05:08:32;;;;;;;0.30;0.30;;;;;;;;;;4976796;28;20070;-80
2022/03/15 05:11:07;;;;;;;0.30;0.30;;;;;;;;;;4980622;28;20109;-78
2022/03/15 05:13:41;;;;;;;0.75;0.75;;;;;;;;;;4976782;28;20030;-80
2022/03/15 05:16:11;;;;;;;33.78;31.83;;;;;;;;;;4977854;28;20034;-80
2022/03/15 05:18:37;;;;;;;263.83;246.52;;;;;;;;;;4979903;28;20033;-80
2022/03/15 05:21:04;;;;;;;3.42;3.30;;;;;;;;;;4978268;28;20071;-80
2022/03/15 05:23:30;;;;;;;0.10;0.10;;;;;;;;;;4979352;28;20026;-80
2022/03/15 05:25:56;;;;;;;0.20;0.20;;;;;;;;;;4978830;28;20745;-79
2022/03/15 05:28:22;;;;;;;0.10;0.10;;;;;;;;;;4979515;28;20105;-79
2022/03/15 05:30:48;;;;;;;0.30;0.30;;;;;;;;;;4977873;28;20959;-78
2022/03/15 05:33:14;;;;;;;0.20;0.20;;;;;;;;;;4977561;28;20285;-79
2022/03/15 05:35:40;;;;;;;0.20;0.20;;;;;;;;;;4980806;28;20273;-79
2022/03/15 05:38:07;;;;;;;0.20;0.20;;;;;;;;;;4983235;28;20092;-81
2022/03/15 05:40:34;;;;;;;1.20;1.20;;;;;;;;;;4983316;28;20038;-81
2022/03/15 05:43:00;;;;;;;0.98;0.98;;;;;;;;;;4990357;28;20022;-82
2022/03/15 05:45:26;;;;;;;1.40;1.40;;;;;;;;;;4976841;28;20038;-82
2022/03/15 05:47:52;;;;;;;0.90;0.90;;;;;;;;;;4989894;28;20045;-85
2022/03/15 05:50:18;;;;;;;0.70;0.70;;;;;;;;;;4982265;28;20039;-79
2022/03/15 05:52:44;;;;;;;1.37;1.37;;;;;;;;;;4983931;28;20041;-79
2022/03/15 05:55:11;;;;;;;0.93;0.93;;;;;;;;;;4981418;28;20088;-80
2022/03/15 05:57:37;;;;;;;0.90;0.90;;;;;;;;;;4983738;28;20288;-80
2022/03/15 06:00:04;;;;;;;0.75;0.75;;;;;;;;;;4979952;28;20948;-80
2022/03/15 06:02:30;;;;;;;1.10;1.10;;;;;;;;;;4983856;28;20856;-80
2022/03/15 06:04:57;;;;;;;0.80;0.80;;;;;;;;;;4984616;28;20057;-79
2022/03/15 06:07:24;;;;;;;0.50;0.50;;;;;;;;;;4984399;28;20133;-79
2022/03/15 06:09:51;;;;;;;1.55;1.55;;;;;;;;;;4983667;28;20057;-81
2022/03/15 06:12:19;;;;;;;0.40;0.40;;;;;;;;;;4980678;28;20142;-78
2022/03/15 06:14:45;;;;;;;0.40;0.40;;;;;;;;;;4980384;28;20629;-78
2022/03/15 06:17:11;;;;;;;0.50;0.50;;;;;;;;;;4981401;28;20031;-80
2022/03/15 06:19:38;;;;;;;0.40;0.40;;;;;;;;;;4979451;28;20029;-81
2022/03/15 06:22:04;;;;;;;0.30;0.30;;;;;;;;;;4982396;28;20030;-79
2022/03/15 06:24:31;;;;;;;0.30;0.30;;;;;;;;;;4982412;28;20489;-78
2022/03/15 06:26:58;;;;;;;;;;;;;;;;;;4981648;28;20044;-78
2022/03/15 06:29:25;;;;;;;0.30;0.30;;;;;;;;;;4982798;28;19913;-79
2022/03/15 06:31:51;;;;;;;0.30;0.30;;;;;;;;;;4977882;28;20069;-79
2022/03/15 06:34:17;;;;;;;0.40;0.40;;;;;;;;;;4981916;28;20033;-77
2022/03/15 06:36:44;;;;;;;0.40;0.40;;;;;;;;;;4979353;28;20038;-77
2022/03/15 06:39:10;;;;;;;0.40;0.40;;;;;;;;;;4990042;28;20038;-80
2022/03/15 06:41:37;;;;;;;0.70;0.70;;;;;;;;;;4975542;28;20030;-79
2022/03/15 06:44:03;;;;;;;0.32;0.32;;;;;;;;;;4982261;28;20023;-77
2022/03/15 06:46:30;;;;;;;0.40;0.40;;;;;;;;;;4981602;28;20121;-78
2022/03/15 06:48:56;;;;;;;0.50;0.50;;;;;;;;;;4982054;28;20019;-78
2022/03/15 06:51:23;;;;;;;0.38;0.38;;;;;;;;;;4983837;28;20060;-78
2022/03/15 06:53:49;;;;;;;0.30;0.30;;;;;;;;;;4981484;28;20121;-77
2022/03/15 06:56:15;;;;;;;0.87;0.87;;;;;;;;;;4974489;28;20273;-78
2022/03/15 06:58:41;;;;;;;0.30;0.30;;;;;;;;;;4979083;28;20041;-78
2022/03/15 07:01:07;;;;;;;0.68;0.68;;;;;;;;;;4979485;28;20047;-78
2022/03/15 07:03:34;;;;;;;0.50;0.50;;;;;;;;;;4974534;28;20563;-78
2022/03/15 07:06:00;;;;;;;0.40;0.40;;;;;;;;;;4976633;28;20101;-79
2022/03/15 07:08:26;;;;;;;0.30;0.30;;;;;;;;;;4983232;28;20074;-77
2022/03/15 07:10:53;;;;;;;0.40;0.40;;;;;;;;;;4970191;28;20115;-77
2022/03/15 07:13:19;;;;;;;0.30;0.30;;;;;;;;;;4982132;28;20026;-77
2022/03/15 07:15:45;;;;;;;0.20;0.20;;;;;;;;;;4982308;28;20136;-78
2022/03/15 07:18:11;;;;;;;0.57;0.57;;;;;;;;;;4974197;28;20058;-78
2022/03/15 07:20:37;;;;;;;0.23;0.23;;;;;;;;;;4973091;28;20037;-77
2022/03/15 07:23:04;;;;;;;0.20;0.20;;;;;;;;;;4977219;28;20524;-78
2022/03/15 07:25:30;;;;;;;0.20;0.20;;;;;;;;;;4988167;28;20623;-77
2022/03/15 07:27:57;;;;;;;0.50;0.50;;;;;;;;;;4981740;28;20048;-77
2022/03/15 07:30:23;;;;;;;;;;;;;;;;;;4981491;28;20274;-77
2022/03/15 07:32:49;;;;;;;0.20;0.20;;;;;;;;;;4981576;28;19918;-77
2022/03/15 07:35:15;;;;;;;0.20;0.20;;;;;;;;;;4974423;28;20027;-78
2022/03/15 07:37:51;;;;;;;1.45;1.45;;;;;;;;;;4981384;28;20034;-78
2022/03/15 07:40:18;;;;;;;0.50;0.50;;;;;;;;;;4978351;28;20030;-78
2022/03/15 07:42:44;;;;;;;0.35;0.35;;;;;;;;;;4979987;28;20645;-78
2022/03/15 07:45:11;;;;;;;0.80;0.80;;;;;;;;;;4980438;28;20030;-78
2022/03/15 07:47:37;;;;;;;;;;;;;;;;;;4974947;28;20078;-77
2022/03/15 07:50:03;;;;;;;0.30;0.30;;;;;;;;;;4984816;28;19920;-80
2022/03/15 07:52:30;;;;;;;0.30;0.30;;;;;;;;;;4982007;28;20034;-82
2022/03/15 07:54:56;;;;;;;;;;;;;;;;;;4982859;28;20027;-83
2022/03/15 07:57:22;;;;;;;0.10;0.10;;;;;;;;;;4974616;28;19914;-83
2022/03/15 07:59:48;;;;;;;0.20;0.20;;;;;;;;;;4979389;28;20023;-83
2022/03/15 08:02:15;;;;;;;0.20;0.20;;;;;;;;;;4975507;28;20045;-82
2022/03/15 08:04:42;;;;;;;0.40;0.40;;;;;;;;;;4982698;28;20073;-83
2022/03/15 08:07:08;;;;;;;0.20;0.20;;;;;;;;;;4976560;28;20049;-85
2022/03/15 08:09:35;;;;;;;0.30;0.30;;;;;;;;;;4980098;28;20053;-84
2022/03/15 08:12:01;;;;;;;4.38;4.20;;;;;;;;;;4982815;28;20042;-86
2022/03/15 08:14:27;;;;;;;0.00;0.00;;;;;;;;;;4975358;28;20031;-84
2022/03/15 08:16:53;;;;;;;67.82;47.60;;;;;;;;;;4984737;28;20486;-85
2022/03/15 08:19:20;;;;;;;26.00;23.30;;;;;;;;;;4982395;28;20038;-84
2022/03/15 08:21:46;;;;;;;0.00;0.00;;;;;;;;;;4979208;28;20023;-85
2022/03/15 08:24:14;;;;;;;0.20;0.20;;;;;;;;;;4978289;28;20027;-84
2022/03/15 08:26:40;;;;;;;4.07;0.60;;;;;;;;;;4982597;28;20461;-85
2022/03/15 08:29:07;;;;;;;0.65;0.65;;;;;;;;;;4984070;28;20064;-84
2022/03/15 08:31:33;;;;;;;0.95;0.95;;;;;;;;;;4982521;28;20521;-85
2022/03/15 08:33:59;;;;;;;1999.90;999.90;;;;;;;;;;4981094;28;20030;-85
2022/03/15 08:36:25;;;;;;;1999.90;999.90;;;;;;;;;;4981654;28;20022;-85
2022/03/15 08:38:51;;;;;;;1999.90;999.90;;;;;;;;;;4976734;28;20034;-85
2022/03/15 08:41:17;;;;;;;1999.90;999.90;;;;;;;;;;4983539;28;20022;-85
2022/03/15 08:43:43;;;;;;;1999.90;999.90;;;;;;;;;;4982495;28;20735;-85
2022/03/15 08:46:10;;;;;;;1999.90;999.90;;;;;;;;;;4976124;28;20118;-85
2022/03/15 08:48:36;;;;;;;61.90;57.35;;;;;;;;;;4978286;28;20038;-85
2022/03/15 08:51:02;;;;;;;1999.90;999.90;;;;;;;;;;4980670;28;20635;-85
2022/03/15 08:53:35;;;;;;;1999.90;999.90;;;;;;;;;;4981308;28;20422;-85
2022/03/15 08:56:01;;;;;;;1999.90;999.90;;;;;;;;;;4979464;28;20030;-85
2022/03/15 08:58:27;;;;;;;1999.90;999.90;;;;;;;;;;4979947;28;20097;-84
2022/03/15 09:00:54;;;;;;;1999.90;999.90;;;;;;;;;;4979147;28;20037;-85
2022/03/15 09:03:20;;;;;;;1999.90;999.90;;;;;;;;;;4980467;28;20042;-85
2022/03/15 09:05:46;;;;;;;1999.90;999.90;;;;;;;;;;4976594;28;20027;-86
2022/03/15 09:08:12;;;;;;;1557.60;804.03;;;;;;;;;;4972214;28;20133;-85
2022/03/15 09:10:39;;;;;;;0.10;0.10;;;;;;;;;;4975491;28;20138;-85
2022/03/15 09:13:08;;;;;;;0.00;0.00;;;;;;;;;;4979944;28;20034;-86
2022/03/15 09:15:34;;;;;;;0.05;0.05;;;;;;;;;;4980610;28;20783;-85
2022/03/15 09:18:02;;;;;;;0.10;0.10;;;;;;;;;;4973883;28;20836;-86
2022/03/15 09:20:28;;;;;;;0.30;0.30;;;;;;;;;;4979597;28;20034;-85
2022/03/15 09:22:54;;;;;;;0.17;0.17;;;;;;;;;;4980773;28;20577;-85
2022/03/15 09:25:20;;;;;;;1.07;0.70;;;;;;;;;;4979700;28;20242;-86
2022/03/15 09:27:47;;;;;;;0.25;0.25;;;;;;;;;;4979185;28;20305;-85
2022/03/15 09:30:13;;;;;;;0.25;0.25;;;;;;;;;;4978911;28;20034;-86
2022/03/15 09:32:39;;;;;;;0.00;0.00;;;;;;;;;;4982226;28;20034;-85
2022/03/15 09:35:06;;;;;;;0.00;0.00;;;;;;;;;;4983202;28;20030;-86
2022/03/15 09:37:32;;;;;;;0.05;0.05;;;;;;;;;;4980746;28;20038;-85
2022/03/15 09:39:58;;;;;;;0.20;0.20;;;;;;;;;;4979976;28;20046;-85
2022/03/15 09:42:25;;;;;;;0.10;0.10;;;;;;;;;;4981849;28;20038;-84
2022/03/15 09:44:51;;;;;;;;;;;;;;;;;;4972046;28;20478;-85
2022/03/15 09:47:17;;;;;;;1.65;0.82;;;;;;;;;;4982928;28;19921;-84
2022/03/15 09:49:45;;;;;;;4.53;2.15;;;;;;;;;;4975674;28;20453;-85
2022/03/15 09:52:11;;;;;;;0.32;0.32;;;;;;;;;;4972234;28;20049;-85
2022/03/15 09:54:38;;;;;;;0.45;0.45;;;;;;;;;;4982514;28;20026;-85
2022/03/15 09:57:04;;;;;;;;;;;;;;;;;;4982510;28;20553;-86
2022/03/15 09:59:31;;;;;;;0.10;0.10;;;;;;;;;;4984120;28;19980;-86
2022/03/15 10:01:59;;;;;;;0.40;0.40;;;;;;;;;;4984044;28;20057;-85
2022/03/15 10:04:25;;;;;;;1.10;0.38;;;;;;;;;;4981946;28;20153;-85
2022/03/15 10:06:52;;;;;;;1.13;0.20;;;;;;;;;;4973282;28;20044;-83
2022/03/15 10:09:19;;;;;;;0.08;0.03;;;;;;;;;;4977136;28;20512;-84
2022/03/15 10:11:45;;;;;;;0.10;0.10;;;;;;;;;;4968266;28;20037;-83
2022/03/15 10:14:11;;;;;;;0.22;0.22;;;;;;;;;;4983019;28;20031;-83
2022/03/15 10:16:42;;;;;;;0.00;0.00;;;;;;;;;;4982125;28;20045;-84
2022/03/15 10:19:09;;;;;;;1.55;0.60;;;;;;;;;;4981481;28;20034;-84
2022/03/15 10:21:50;;;;;;;0.38;0.38;;;;;;;;;;4981618;28;20161;-83
2022/03/15 10:24:18;;;;;;;0.77;0.77;;;;;;;;;;4983574;28;20026;-83
2022/03/15 10:26:45;;;;;;;18.55;0.60;;;;;;;;;;4984145;28;20035;-83
2022/03/15 10:29:13;;;;;;;0.13;0.13;;;;;;;;;;4986237;28;20516;-83
2022/03/15 10:31:39;;;;;;;0.10;0.10;;;;;;;;;;4986020;28;20042;-83
2022/03/15 10:34:07;;;;;;;0.00;0.00;;;;;;;;;;4982996;28;20041;-84
2022/03/15 10:36:53;;;;;;;0.00;0.00;;;;;;;;;;4982825;28;20038;-83
2022/03/15 10:39:19;;;;;;;0.28;0.28;;;;;;;;;;4983444;28;20058;-84
2022/03/15 10:41:53;;;;;;;0.57;0.57;;;;;;;;;;4971164;28;20042;-83
2022/03/15 10:44:22;;;;;;;0.20;0.20;;;;;;;;;;4979999;28;20094;-83
2022/03/15 10:47:18;;;;;;;0.45;0.38;;;;;;;;;;4999366;28;20062;-84
2022/03/15 10:50:04;;;;;;;0.20;0.20;;;;;;;;;;4972775;28;20053;-84
2022/03/15 10:52:32;;;;;;;0.00;0.00;;;;;;;;;;4978956;28;20058;-84
2022/03/15 10:55:08;;;;;;;12.18;0.70;;;;;;;;;;4979392;28;20049;-83
2022/03/15 10:57:51;;;;;;;3.40;1.25;;;;;;;;;;4978862;28;20108;-84
2022/03/15 11:00:18;;;;;;;0.32;0.30;;;;;;;;;;4982023;28;20034;-84
2022/03/15 11:02:45;;;;;;;0.43;0.32;;;;;;;;;;4981909;28;20110;-84
2022/03/15 11:05:11;;;;;;;4.38;0.55;;;;;;;;;;4972988;28;20034;-84
2022/03/15 11:07:41;;;;;;;7.07;1.15;;;;;;;;;;4976789;28;20034;-83
2022/03/15 11:10:14;;;;;;;0.10;0.10;;;;;;;;;;4982036;28;20054;-84
2022/03/15 11:13:09;;;;;;;23.27;0.90;;;;;;;;;;4983433;28;20034;-84
2022/03/15 11:15:39;;;;;;;0.17;0.17;;;;;;;;;;4981907;28;20030;-83
2022/03/15 11:18:06;;;;;;;0.68;0.38;;;;;;;;;;4979499;28;20030;-84
2022/03/15 11:20:32;;;;;;;;;;;;;;;;;;4981435;28;20053;-84
2022/03/15 11:23:00;;;;;;;0.52;0.52;;;;;;;;;;4982908;28;19920;-84
2022/03/15 11:25:32;;;;;;;0.63;0.60;;;;;;;;;;4978650;28;20031;-84
2022/03/15 11:27:58;;;;;;;1.17;0.60;;;;;;;;;;4979733;28;20038;-84
2022/03/15 11:30:24;;;;;;;0.00;0.00;;;;;;;;;;4981393;28;20031;-84
2022/03/15 11:32:51;;;;;;;0.03;0.03;;;;;;;;;;4979599;28;20038;-83
2022/03/15 11:35:22;;;;;;;0.00;0.00;;;;;;;;;;4983723;28;20296;-84
2022/03/15 11:37:48;;;;;;;0.73;0.73;;;;;;;;;;4983700;28;20038;-83
2022/03/15 11:40:18;;;;;;;0.20;0.20;;;;;;;;;;4981632;28;20034;-84
2022/03/15 11:42:45;;;;;;;0.93;0.65;;;;;;;;;;4979771;28;20054;-84
2022/03/15 11:45:16;;;;;;;0.60;0.57;;;;;;;;;;4974590;28;20056;-83
2022/03/15 11:47:48;;;;;;;0.10;0.10;;;;;;;;;;4971386;28;20081;-84
2022/03/15 11:50:20;;;;;;;0.10;0.10;;;;;;;;;;4981318;28;20022;-84
2022/03/15 11:52:53;;;;;;;0.45;0.45;;;;;;;;;;4983196;28;20109;-83
2022/03/15 11:55:29;;;;;;;0.43;0.43;;;;;;;;;;4979606;28;20033;-84
2022/03/15 11:58:07;;;;;;;0.00;0.00;;;;;;;;;;4982540;28;20708;-84
2022/03/15 12:00:38;;;;;;;0.10;0.10;;;;;;;;;;4981376;28;20485;-84
2022/03/15 12:03:07;;;;;;;0.10;0.10;;;;;;;;;;4975746;28;20110;-84
2022/03/15 12:06:03;;;;;;;1.25;0.73;;;;;;;;;;4980537;28;20042;-83
2022/03/15 12:08:29;;;;;;;0.10;0.10;;;;;;;;;;4973056;28;20113;-83
2022/03/15 12:10:56;;;;;;;0.32;0.17;;;;;;;;;;4983159;28;20080;-83
2022/03/15 12:13:33;;;;;;;0.43;0.43;;;;;;;;;;4981497;28;20453;-83
2022/03/15 12:16:11;;;;;;;0.00;0.00;;;;;;;;;;4979906;28;20030;-83
2022/03/15 12:18:45;;;;;;;0.20;0.20;;;;;;;;;;4981712;28;20395;-83
2022/03/15 12:21:11;;;;;;;0.20;0.20;;;;;;;;;;4981188;28;20113;-83
2022/03/15 12:23:48;;;;;;;0.00;0.00;;;;;;;;;;4975665;28;20049;-83
2022/03/15 12:26:18;;;;;;;0.32;0.32;;;;;;;;;;4983391;28;20069;-84
2022/03/15 12:28:55;;;;;;;0.70;0.30;;;;;;;;;;4984981;28;20051;-83
2022/03/15 12:31:31;;;;;;;0.30;0.10;;;;;;;;;;4980797;28;20038;-84
2022/03/15 12:34:02;;;;;;;21.35;0.68;;;;;;;;;;4982303;28;20108;-83
2022/03/15 12:36:36;;;;;;;0.10;0.10;;;;;;;;;;4979968;28;20053;-83
2022/03/15 12:39:09;;;;;;;0.20;0.20;;;;;;;;;;4982347;28;20129;-83
2022/03/15 12:41:35;;;;;;;2.30;1.38;;;;;;;;;;4976674;28;20034;-83
2022/03/15 12:44:01;;;;;;;0.88;0.65;;;;;;;;;;4983783;28;20026;-83
2022/03/15 12:46:30;;;;;;;0.20;0.20;;;;;;;;;;4979924;28;20046;-82
2022/03/15 12:48:57;;;;;;;0.10;0.10;;;;;;;;;;4974255;28;20037;-83
2022/03/15 12:51:23;;;;;;;0.30;0.30;;;;;;;;;;4976937;28;20111;-83
2022/03/15 12:53:49;;;;;;;0.57;0.50;;;;;;;;;;4976138;28;20200;-84
2022/03/15 12:56:15;;;;;;;0.10;0.10;;;;;;;;;;4983377;28;20041;-83
2022/03/15 12:58:43;;;;;;;0.00;0.00;;;;;;;;;;4984095;28;20034;-84
2022/03/15 13:01:10;;;;;;;0.35;0.35;;;;;;;;;;4981457;28;20109;-83
2022/03/15 13:03:38;;;;;;;0.95;0.63;;;;;;;;;;4980091;28;20029;-83
2022/03/15 13:06:04;;;;;;;0.95;0.57;;;;;;;;;;4981275;28;20026;-83
2022/03/15 13:08:32;;;;;;;0.20;0.20;;;;;;;;;;4977902;28;20069;-83
2022/03/15 13:11:03;;;;;;;0.15;0.10;;;;;;;;;;4983172;28;20486;-83
2022/03/15 13:13:29;;;;;;;0.15;0.13;;;;;;;;;;4971497;28;20038;-83
2022/03/15 13:16:09;;;;;;;7.70;0.35;;;;;;;;;;4979415;28;20500;-82
2022/03/15 13:18:36;;;;;;;1.23;0.68;;;;;;;;;;4977675;28;20133;-83
2022/03/15 13:21:02;;;;;;;0.10;0.10;;;;;;;;;;4968380;28;20026;-83
2022/03/15 13:23:29;;;;;;;0.15;0.15;;;;;;;;;;4974557;28;20076;-83
2022/03/15 13:26:05;;;;;;;0.20;0.20;;;;;;;;;;4978893;28;20823;-83
2022/03/15 13:28:34;;;;;;;0.85;0.85;;;;;;;;;;4980978;28;20148;-83
2022/03/15 13:31:04;;;;;;;0.17;0.17;;;;;;;;;;4976866;28;20027;-83
2022/03/15 13:33:40;;;;;;;0.38;0.25;;;;;;;;;;4973567;28;20417;-83
2022/03/15 13:36:10;;;;;;;0.10;0.10;;;;;;;;;;4981544;28;20041;-83
2022/03/15 13:38:47;;;;;;;9.63;0.95;;;;;;;;;;4978896;28;20037;-83
2022/03/15 13:41:14;;;;;;;0.60;0.47;;;;;;;;;;4977097;28;20030;-83
2022/03/15 13:43:43;;;;;;;0.32;0.32;;;;;;;;;;4982242;28;20033;-83
2022/03/15 13:46:10;;;;;;;0.17;0.17;;;;;;;;;;4981369;28;20030;-84
2022/03/15 13:48:38;;;;;;;;;;;;;;;;;;4981398;28;20042;-83
2022/03/15 13:51:10;;;;;;;0.10;0.10;;;;;;;;;;4981326;28;19960;-83
2022/03/15 13:53:40;;;;;;;0.22;0.22;;;;;;;;;;4978583;28;20025;-83
2022/03/15 13:56:13;;;;;;;0.10;0.10;;;;;;;;;;4972788;28;20070;-83
2022/03/15 13:58:45;;;;;;;0.00;0.00;;;;;;;;;;4977464;28;20035;-83
2022/03/15 14:01:12;;;;;;;0.00;0.00;;;;;;;;;;4981339;28;20603;-83
2022/03/15 14:03:38;;;;;;;0.00;0.00;;;;;;;;;;4983743;28;20569;-83
2022/03/15 14:06:06;;;;;;;0.70;0.38;;;;;;;;;;4985076;28;20022;-84
2022/03/15 14:08:47;;;;;;;3.38;1.50;;;;;;;;;;4982065;28;20101;-83
2022/03/15 14:11:13;;;;;;;0.28;0.28;;;;;;;;;;4983147;28;20034;-83
2022/03/15 14:13:42;;;;;;;0.90;0.65;;;;;;;;;;4981810;28;20030;-83
2022/03/15 14:16:14;;;;;;;0.03;0.03;;;;;;;;;;4983574;28;20074;-83
2022/03/15 14:18:52;;;;;;;0.13;0.13;;;;;;;;;;4982289;28;20406;-83
2022/03/15 14:21:24;;;;;;;0.20;0.20;;;;;;;;;;4983222;28;20026;-83
2022/03/15 14:23:57;;;;;;;0.52;0.52;;;;;;;;;;4980905;28;20026;-83
2022/03/15 14:26:28;;;;;;;0.32;0.15;;;;;;;;;;4980384;28;20118;-83
2022/03/15 14:28:55;;;;;;;0.10;0.10;;;;;;;;;;4985302;28;20149;-83
2022/03/15 14:31:36;;;;;;;0.30;0.30;;;;;;;;;;4979030;28;20045;-83
2022/03/15 14:34:03;;;;;;;0.15;0.15;;;;;;;;;;4978734;28;20126;-83
2022/03/15 14:36:32;;;;;;;0.38;0.38;;;;;;;;;;4983759;28;20046;-82
2022/03/15 14:39:09;;;;;;;0.10;0.10;;;;;;;;;;4973565;28;20106;-82
2022/03/15 14:41:35;;;;;;;0.43;0.30;;;;;;;;;;4978288;28;20069;-83
2022/03/15 14:44:01;;;;;;;0.15;0.15;;;;;;;;;;4983042;28;20042;-83
2022/03/15 14:46:28;;;;;;;0.65;0.47;;;;;;;;;;4982016;28;20030;-83
2022/03/15 14:48:54;;;;;;;1.02;0.70;;;;;;;;;;4977060;28;20674;-82